Time;durP1;ratioP1;P1;durP2;ratioP2;P2;SDS_P1;SDS_P2;PMS_P1;PMS_P2;Temp;Humidity;BMP_temperature;BMP_pressure;BME280_temperature;BME280_humidity;BME280_pressure;Samples;Min_cycle;Max_cycle;Signal;HPM_P1;HPM_P2
2021/04/11 00:02:18;;;;;;;29.73;26.40;;;;;;;;;;5137950;27;20554;-60
2021/04/11 00:04:43;;;;;;;26.03;23.43;;;;;;;;;;5137613;27;20564;-61
2021/04/11 00:07:08;;;;;;;27.40;23.40;;;;;;;;;;5137614;27;20306;-60
2021/04/11 00:09:33;;;;;;;30.30;26.20;;;;;;;;;;5137688;27;20221;-60
2021/04/11 00:11:59;;;;;;;28.53;25.60;;;;;;;;;;5137005;27;20299;-61
2021/04/11 00:14:24;;;;;;;29.30;25.00;;;;;;;;;;5137679;27;20213;-61
2021/04/11 00:16:50;;;;;;;28.03;24.30;;;;;;;;;;5136753;27;20305;-61
2021/04/11 00:19:15;;;;;;;28.37;25.50;;;;;;;;;;5137638;27;20219;-61
2021/04/11 00:21:40;;;;;;;26.90;24.20;;;;;;;;;;5137507;27;20207;-61
2021/04/11 00:24:06;;;;;;;27.03;24.13;;;;;;;;;;5137034;27;20211;-61
2021/04/11 00:26:31;;;;;;;27.07;24.17;;;;;;;;;;5137365;27;20211;-62
2021/04/11 00:28:56;;;;;;;27.53;24.60;;;;;;;;;;5137012;27;20527;-61
2021/04/11 00:31:21;;;;;;;29.30;26.30;;;;;;;;;;5137410;27;20289;-61
2021/04/11 00:33:47;;;;;;;27.77;24.90;;;;;;;;;;5137021;27;20210;-61
2021/04/11 00:36:17;;;;;;;26.10;23.50;;;;;;;;;;5137355;27;20303;-61
2021/04/11 00:38:42;;;;;;;33.60;29.50;;;;;;;;;;5136809;27;20233;-61
2021/04/11 00:41:25;;;;;;;28.83;25.40;;;;;;;;;;5137050;27;20415;-61
2021/04/11 00:43:51;;;;;;;29.27;26.20;;;;;;;;;;5135900;27;20287;-61
2021/04/11 00:46:38;;;;;;;28.53;25.47;;;;;;;;;;5136053;27;20449;-60
2021/04/11 00:49:10;;;;;;;31.17;26.63;;;;;;;;;;5135620;27;20423;-61
2021/04/11 00:51:36;;;;;;;29.13;26.13;;;;;;;;;;5137059;27;20442;-60
2021/04/11 00:54:04;;;;;;;28.60;25.47;;;;;;;;;;5136535;27;20442;-60
2021/04/11 00:56:32;;;;;;;27.17;24.33;;;;;;;;;;5136804;27;20235;-61
2021/04/11 00:58:57;;;;;;;30.87;27.47;;;;;;;;;;5136241;27;20463;-60
2021/04/11 01:01:22;;;;;;;29.60;26.67;;;;;;;;;;5135893;27;20416;-61
2021/04/11 01:03:49;;;;;;;30.43;25.60;;;;;;;;;;5135381;27;20297;-61
2021/04/11 01:06:21;;;;;;;31.00;27.63;;;;;;;;;;5128762;27;20212;-61
2021/04/11 01:08:46;;;;;;;35.50;28.60;;;;;;;;;;5115234;28;20457;-61
2021/04/11 01:11:14;;;;;;;32.93;26.83;;;;;;;;;;5117323;27;20630;-60
2021/04/11 01:13:49;;;;;;;30.60;27.40;;;;;;;;;;5135273;27;20216;-62
2021/04/11 01:16:16;;;;;;;32.83;28.80;;;;;;;;;;5135945;27;20422;-61
2021/04/11 01:18:42;;;;;;;32.60;29.13;;;;;;;;;;5135354;27;20439;-61
2021/04/11 01:21:12;;;;;;;31.77;28.47;;;;;;;;;;5134797;27;20438;-60
2021/04/11 01:23:46;;;;;;;34.53;27.77;;;;;;;;;;5135595;27;20211;-61
2021/04/11 01:26:11;;;;;;;30.43;27.40;;;;;;;;;;5134914;27;20426;-62
2021/04/11 01:28:40;;;;;;;31.33;27.80;;;;;;;;;;5135114;27;20434;-61
2021/04/11 01:31:06;;;;;;;32.40;28.90;;;;;;;;;;5134876;27;20218;-59
2021/04/11 01:33:34;;;;;;;35.10;31.13;;;;;;;;;;5135984;27;20560;-61
2021/04/11 01:36:00;;;;;;;32.87;29.47;;;;;;;;;;5118040;27;20718;-61
2021/04/11 01:38:26;;;;;;;35.77;31.87;;;;;;;;;;5135793;27;20915;-60
2021/04/11 01:41:02;;;;;;;38.17;29.83;;;;;;;;;;5135790;27;20434;-61
2021/04/11 01:43:28;;;;;;;32.77;29.10;;;;;;;;;;5134931;27;20531;-61
2021/04/11 01:45:54;;;;;;;34.17;30.70;;;;;;;;;;5134465;27;20423;-60
2021/04/11 01:48:19;;;;;;;36.87;31.97;;;;;;;;;;5135265;27;20219;-61
2021/04/11 01:50:45;;;;;;;37.63;33.17;;;;;;;;;;5134502;27;20216;-61
2021/04/11 01:53:11;;;;;;;34.97;31.17;;;;;;;;;;5134250;27;20218;-60
2021/04/11 01:55:36;;;;;;;32.60;29.30;;;;;;;;;;5134643;27;20914;-61
2021/04/11 01:58:02;;;;;;;33.87;30.20;;;;;;;;;;5134194;27;20474;-61
2021/04/11 02:00:43;;;;;;;35.87;32.17;;;;;;;;;;5135620;27;20214;-61
2021/04/11 02:03:13;;;;;;;34.70;31.00;;;;;;;;;;5135134;27;20671;-62
2021/04/11 02:05:40;;;;;;;32.90;29.40;;;;;;;;;;5134560;27;20569;-60
2021/04/11 02:08:06;;;;;;;40.80;33.90;;;;;;;;;;5133925;27;20508;-60
2021/04/11 02:10:33;;;;;;;36.80;32.13;;;;;;;;;;5134373;27;20435;-61
2021/04/11 02:12:58;;;;;;;35.83;32.13;;;;;;;;;;5134008;27;20459;-60
2021/04/11 02:15:31;;;;;;;37.43;33.40;;;;;;;;;;5135291;27;20434;-61
2021/04/11 02:17:57;;;;;;;41.07;34.07;;;;;;;;;;5133788;27;20230;-60
2021/04/11 02:20:23;;;;;;;38.00;33.50;;;;;;;;;;5134216;27;20463;-60
2021/04/11 02:22:49;;;;;;;39.77;33.43;;;;;;;;;;5135225;27;20479;-61
2021/04/11 02:25:18;;;;;;;37.73;33.70;;;;;;;;;;5134882;27;20469;-60
2021/04/11 02:27:43;;;;;;;37.63;33.53;;;;;;;;;;5134260;27;20221;-61
2021/04/11 02:30:11;;;;;;;37.83;33.83;;;;;;;;;;5134730;27;20460;-61
2021/04/11 02:32:36;;;;;;;42.47;35.20;;;;;;;;;;5135014;27;20555;-61
2021/04/11 02:35:04;;;;;;;40.83;35.07;;;;;;;;;;5133657;27;20463;-61
2021/04/11 02:37:31;;;;;;;39.13;33.43;;;;;;;;;;5134541;27;20230;-61
2021/04/11 02:39:58;;;;;;;40.13;35.37;;;;;;;;;;5133630;27;20468;-60
2021/04/11 02:42:29;;;;;;;43.13;36.53;;;;;;;;;;5134073;28;20482;-61
2021/04/11 02:44:56;;;;;;;41.07;34.90;;;;;;;;;;5134990;27;20769;-61
2021/04/11 02:47:21;;;;;;;41.77;37.23;;;;;;;;;;5134609;27;20449;-60
2021/04/11 02:49:51;;;;;;;37.27;33.27;;;;;;;;;;5133857;28;20531;-60
2021/04/11 02:52:24;;;;;;;44.53;36.77;;;;;;;;;;5133477;27;20247;-60
2021/04/11 02:54:50;;;;;;;40.90;35.60;;;;;;;;;;5134056;28;20495;-61
2021/04/11 02:57:18;;;;;;;45.57;39.37;;;;;;;;;;5116200;27;20470;-61
2021/04/11 02:59:45;;;;;;;40.63;35.33;;;;;;;;;;5134859;27;20260;-61
2021/04/11 03:02:12;;;;;;;41.53;37.00;;;;;;;;;;5137509;27;20427;-60
2021/04/11 03:04:37;;;;;;;39.27;34.83;;;;;;;;;;5137962;27;20430;-60
2021/04/11 03:07:20;;;;;;;42.57;37.57;;;;;;;;;;5138442;27;20439;-61
2021/04/11 03:09:47;;;;;;;42.33;35.33;;;;;;;;;;5138978;27;20319;-60
2021/04/11 03:12:13;;;;;;;38.07;34.03;;;;;;;;;;5137354;27;20451;-60
2021/04/11 03:14:41;;;;;;;43.20;38.60;;;;;;;;;;5137894;27;20543;-61
2021/04/11 03:17:13;;;;;;;41.23;35.90;;;;;;;;;;5137274;27;20211;-61
2021/04/11 03:19:52;;;;;;;45.90;36.80;;;;;;;;;;5137553;27;20450;-62
2021/04/11 03:22:18;;;;;;;43.90;37.93;;;;;;;;;;5137470;27;20452;-61
2021/04/11 03:24:44;;;;;;;45.13;40.57;;;;;;;;;;5137726;27;20459;-60
2021/04/11 03:27:27;;;;;;;41.37;36.13;;;;;;;;;;5119860;27;20467;-61
2021/04/11 03:29:57;;;;;;;41.73;35.33;;;;;;;;;;5137729;27;20215;-60
2021/04/11 03:32:26;;;;;;;42.60;37.57;;;;;;;;;;5137158;27;20440;-60
2021/04/11 03:34:53;;;;;;;40.97;36.50;;;;;;;;;;5137560;27;20429;-61
2021/04/11 03:37:19;;;;;;;41.67;37.23;;;;;;;;;;5136840;27;20479;-61
2021/04/11 03:39:45;;;;;;;44.03;39.23;;;;;;;;;;5137264;27;20447;-61
2021/04/11 03:42:14;;;;;;;43.37;38.73;;;;;;;;;;5137952;27;20503;-61
2021/04/11 03:44:40;;;;;;;41.23;36.53;;;;;;;;;;5137371;27;20259;-62
2021/04/11 03:47:09;;;;;;;44.93;38.23;;;;;;;;;;5137802;27;20922;-60
2021/04/11 03:50:12;;;;;;;42.97;38.43;;;;;;;;;;5138101;27;20211;-60
2021/04/11 03:52:47;;;;;;;43.43;37.23;;;;;;;;;;5138054;27;20428;-61
2021/04/11 03:55:16;;;;;;;45.73;38.80;;;;;;;;;;5119512;27;20450;-60
2021/04/11 03:57:48;;;;;;;42.97;36.53;;;;;;;;;;5136827;27;20449;-60
2021/04/11 04:00:19;;;;;;;42.80;37.30;;;;;;;;;;5137805;27;20415;-61
2021/04/11 04:02:46;;;;;;;44.37;39.47;;;;;;;;;;5137261;27;20452;-61
2021/04/11 04:05:15;;;;;;;42.20;37.77;;;;;;;;;;5136385;27;20439;-61
2021/04/11 04:07:56;;;;;;;45.57;40.77;;;;;;;;;;5136563;27;20460;-61
2021/04/11 04:10:28;;;;;;;48.13;40.30;;;;;;;;;;5137546;27;20430;-61
2021/04/11 04:13:11;;;;;;;45.17;39.27;;;;;;;;;;5135844;27;20445;-61
2021/04/11 04:15:45;;;;;;;40.77;36.23;;;;;;;;;;5137404;27;20445;-61
2021/04/11 04:18:32;;;;;;;41.50;37.03;;;;;;;;;;5137245;27;20416;-60
2021/04/11 04:21:35;;;;;;;41.80;37.40;;;;;;;;;;5137132;27;20424;-61
2021/04/11 04:24:27;;;;;;;45.47;38.50;;;;;;;;;;5136905;27;20445;-61
2021/04/11 04:27:06;;;;;;;44.73;39.93;;;;;;;;;;5135952;27;20457;-61
2021/04/11 04:29:39;;;;;;;44.10;39.50;;;;;;;;;;5136335;27;20542;-61
2021/04/11 04:32:26;;;;;;;48.83;38.90;;;;;;;;;;5137071;27;20527;-62
2021/04/11 04:35:19;;;;;;;42.67;36.63;;;;;;;;;;5135597;27;20445;-61
2021/04/11 04:38:15;;;;;;;42.10;36.83;;;;;;;;;;5136918;27;20437;-61
2021/04/11 04:40:44;;;;;;;41.80;37.37;;;;;;;;;;5136765;27;20545;-64
2021/04/11 04:43:16;;;;;;;41.90;37.37;;;;;;;;;;5137365;27;20456;-61
2021/04/11 04:45:52;;;;;;;45.27;39.30;;;;;;;;;;5159774;27;20445;-60
2021/04/11 04:48:25;;;;;;;46.87;38.53;;;;;;;;;;5135892;27;20463;-60
2021/04/11 04:51:00;;;;;;;48.47;42.47;;;;;;;;;;5135623;27;20426;-61
2021/04/11 04:53:36;;;;;;;46.20;39.27;;;;;;;;;;5135611;27;20427;-61
2021/04/11 04:56:04;;;;;;;45.00;38.27;;;;;;;;;;5123143;27;20431;-60
2021/04/11 04:58:40;;;;;;;43.77;38.17;;;;;;;;;;5133842;27;20431;-61
2021/04/11 05:01:13;;;;;;;45.23;39.43;;;;;;;;;;5159577;27;20457;-60
2021/04/11 05:03:48;;;;;;;44.50;37.13;;;;;;;;;;5135652;27;20430;-60
2021/04/11 05:06:29;;;;;;;40.97;36.67;;;;;;;;;;5132030;27;20433;-61
2021/04/11 05:09:17;;;;;;;41.37;36.97;;;;;;;;;;5122277;27;20867;-60
2021/04/11 05:11:50;;;;;;;41.60;37.03;;;;;;;;;;5135626;27;20976;-60
2021/04/11 05:14:46;;;;;;;44.60;39.60;;;;;;;;;;5124255;27;20445;-61
2021/04/11 05:17:32;;;;;;;42.83;38.33;;;;;;;;;;5119484;27;20772;-60
2021/04/11 05:20:05;;;;;;;43.67;37.27;;;;;;;;;;5133195;27;20486;-61
2021/04/11 05:22:36;;;;;;;46.30;37.17;;;;;;;;;;5123294;27;20443;-61
2021/04/11 05:25:08;;;;;;;43.93;39.23;;;;;;;;;;5121159;27;20435;-60
2021/04/11 05:27:38;;;;;;;42.63;38.03;;;;;;;;;;5116781;27;20463;-61
2021/04/11 05:30:29;;;;;;;46.70;38.27;;;;;;;;;;5122600;27;20453;-60
2021/04/11 05:32:55;;;;;;;42.70;35.53;;;;;;;;;;5120568;27;20434;-60
2021/04/11 05:35:20;;;;;;;41.37;36.87;;;;;;;;;;5122712;27;20434;-60
2021/04/11 05:37:56;;;;;;;41.83;37.40;;;;;;;;;;5128736;27;20717;-61
2021/04/11 05:40:34;;;;;;;46.10;39.13;;;;;;;;;;5127688;27;20274;-61
2021/04/11 05:43:09;;;;;;;44.80;38.83;;;;;;;;;;5119210;27;20434;-60
2021/04/11 05:46:07;;;;;;;44.07;39.50;;;;;;;;;;5130731;27;20759;-61
2021/04/11 05:48:38;;;;;;;43.30;38.00;;;;;;;;;;5134767;27;20428;-60
2021/04/11 05:51:25;;;;;;;43.83;39.17;;;;;;;;;;5120167;27;20481;-61
2021/04/11 05:54:14;;;;;;;43.63;38.73;;;;;;;;;;5133703;27;20464;-61
2021/04/11 05:56:45;;;;;;;46.57;38.93;;;;;;;;;;5122562;27;20437;-61
2021/04/11 05:59:17;;;;;;;43.10;38.40;;;;;;;;;;5127949;27;20773;-61
2021/04/11 06:02:03;;;;;;;44.40;39.10;;;;;;;;;;5127889;27;20888;-60
2021/04/11 06:04:39;;;;;;;46.60;40.50;;;;;;;;;;5123902;27;20838;-61
2021/04/11 06:07:10;;;;;;;45.03;40.47;;;;;;;;;;5124574;27;20428;-59
2021/04/11 06:09:40;;;;;;;44.33;39.50;;;;;;;;;;5123235;27;20508;-61
2021/04/11 06:12:14;;;;;;;46.20;41.33;;;;;;;;;;5132988;27;20443;-61
2021/04/11 06:15:00;;;;;;;47.50;40.10;;;;;;;;;;5121795;27;20465;-61
2021/04/11 06:17:26;;;;;;;48.73;38.53;;;;;;;;;;5123651;27;20428;-61
2021/04/11 06:19:51;;;;;;;42.37;37.50;;;;;;;;;;5134685;27;20445;-61
2021/04/11 06:22:24;;;;;;;46.80;39.37;;;;;;;;;;5126606;27;20539;-60
2021/04/11 06:25:06;;;;;;;42.30;37.70;;;;;;;;;;5127832;27;20218;-60
2021/04/11 06:27:49;;;;;;;43.00;38.07;;;;;;;;;;5125310;27;20517;-60
2021/04/11 06:30:18;;;;;;;45.30;40.50;;;;;;;;;;5130592;27;20597;-61
2021/04/11 06:32:49;;;;;;;43.00;38.30;;;;;;;;;;5128009;27;20423;-61
2021/04/11 06:35:21;;;;;;;43.33;38.80;;;;;;;;;;5107794;28;20458;-61
2021/04/11 06:37:46;;;;;;;45.20;36.50;;;;;;;;;;5126503;27;20457;-61
2021/04/11 06:40:28;;;;;;;43.53;38.87;;;;;;;;;;5122757;27;20461;-61
2021/04/11 06:43:21;;;;;;;43.60;38.90;;;;;;;;;;5120811;27;20285;-61
2021/04/11 06:45:54;;;;;;;45.47;37.47;;;;;;;;;;5126303;27;20422;-61
2021/04/11 06:48:48;;;;;;;43.00;38.40;;;;;;;;;;5133744;28;20923;-61
2021/04/11 06:51:44;;;;;;;42.27;37.80;;;;;;;;;;5118740;27;21391;-61
2021/04/11 06:54:36;;;;;;;43.50;38.87;;;;;;;;;;5123054;28;20486;-61
2021/04/11 06:57:33;;;;;;;42.93;37.17;;;;;;;;;;5118983;28;20822;-61
2021/04/11 07:00:06;;;;;;;43.93;38.20;;;;;;;;;;5094364;27;20437;-62
2021/04/11 07:03:09;;;;;;;41.33;36.83;;;;;;;;;;5132489;28;20464;-60
2021/04/11 07:05:48;;;;;;;42.77;38.23;;;;;;;;;;5125052;27;20419;-61
2021/04/11 07:08:29;;;;;;;42.33;36.70;;;;;;;;;;5122842;27;20834;-61
2021/04/11 07:11:27;;;;;;;41.30;36.50;;;;;;;;;;5131207;27;20423;-61
2021/04/11 07:14:17;;;;;;;41.23;36.73;;;;;;;;;;5106674;27;20446;-61
2021/04/11 07:17:02;;;;;;;45.50;39.20;;;;;;;;;;5125305;27;20434;-61
2021/04/11 07:19:54;;;;;;;41.77;37.30;;;;;;;;;;5112887;28;20494;-61
2021/04/11 07:22:53;;;;;;;41.23;34.20;;;;;;;;;;5130091;27;20458;-61
2021/04/11 07:25:24;;;;;;;38.97;34.87;;;;;;;;;;5120084;27;20454;-61
2021/04/11 07:28:20;;;;;;;41.87;36.70;;;;;;;;;;5123862;28;20557;-61
2021/04/11 07:30:55;;;;;;;42.33;36.10;;;;;;;;;;5133085;28;20441;-61
2021/04/11 07:33:53;;;;;;;41.83;37.17;;;;;;;;;;5132534;27;20494;-61
2021/04/11 07:36:38;;;;;;;41.67;36.83;;;;;;;;;;5125576;27;20434;-59
2021/04/11 07:39:14;;;;;;;42.40;34.87;;;;;;;;;;5117733;28;20485;-60
2021/04/11 07:41:48;;;;;;;40.40;36.03;;;;;;;;;;5098906;28;20943;-61
2021/04/11 07:44:35;;;;;;;39.47;35.37;;;;;;;;;;5133007;27;20431;-61
2021/04/11 07:47:37;;;;;;;41.30;36.03;;;;;;;;;;5133496;27;20462;-61
2021/04/11 07:50:18;;;;;;;39.30;35.33;;;;;;;;;;5134489;27;20435;-61
2021/04/11 07:53:00;;;;;;;40.70;34.73;;;;;;;;;;5128893;27;20426;-61
2021/04/11 07:55:44;;;;;;;36.23;32.33;;;;;;;;;;5137042;27;20454;-61
2021/04/11 07:58:29;;;;;;;40.40;36.00;;;;;;;;;;5133115;27;20796;-61
2021/04/11 08:01:03;;;;;;;37.53;33.40;;;;;;;;;;5127978;27;20466;-61
2021/04/11 08:03:53;;;;;;;40.17;35.97;;;;;;;;;;5122625;27;20459;-61
2021/04/11 08:06:49;;;;;;;38.60;32.33;;;;;;;;;;5127677;27;20474;-60
2021/04/11 08:09:44;;;;;;;39.93;34.60;;;;;;;;;;5123379;27;20445;-61
2021/04/11 08:12:47;;;;;;;35.13;31.33;;;;;;;;;;5136109;27;20535;-61
2021/04/11 08:15:26;;;;;;;35.13;31.37;;;;;;;;;;5136339;27;20452;-61
2021/04/11 08:18:00;;;;;;;32.77;29.37;;;;;;;;;;5131484;27;20461;-62
2021/04/11 08:20:46;;;;;;;33.73;30.37;;;;;;;;;;5129261;27;20500;-61
2021/04/11 08:23:26;;;;;;;32.20;28.87;;;;;;;;;;5120739;27;20452;-61
2021/04/11 08:26:21;;;;;;;31.30;28.17;;;;;;;;;;5133446;27;20514;-61
2021/04/11 08:29:13;;;;;;;32.13;28.83;;;;;;;;;;5134556;27;20464;-61
2021/04/11 08:31:47;;;;;;;30.60;27.40;;;;;;;;;;5109877;27;20467;-61
2021/04/11 08:34:34;;;;;;;30.10;27.13;;;;;;;;;;5122674;27;20449;-61
2021/04/11 08:37:15;;;;;;;30.57;27.47;;;;;;;;;;5122010;27;20477;-60
2021/04/11 08:40:08;;;;;;;29.47;26.13;;;;;;;;;;5125510;27;20455;-61
2021/04/11 08:43:13;;;;;;;27.83;25.10;;;;;;;;;;5122022;27;20535;-60
2021/04/11 08:45:54;;;;;;;30.03;26.83;;;;;;;;;;5135310;27;20549;-60
2021/04/11 08:48:39;;;;;;;27.07;24.37;;;;;;;;;;5111601;27;21035;-60
2021/04/11 08:51:14;;;;;;;31.10;26.27;;;;;;;;;;5127269;27;20934;-60
2021/04/11 08:53:48;;;;;;;28.50;25.60;;;;;;;;;;5133976;27;20451;-61
2021/04/11 08:56:24;;;;;;;29.10;25.43;;;;;;;;;;5106378;28;20453;-61
2021/04/11 08:59:01;;;;;;;27.23;24.60;;;;;;;;;;5126268;27;20881;-61
2021/04/11 09:01:48;;;;;;;24.40;22.00;;;;;;;;;;5131588;27;20456;-61
2021/04/11 09:04:17;;;;;;;26.47;23.57;;;;;;;;;;5135856;27;20440;-61
2021/04/11 09:07:01;;;;;;;27.40;24.70;;;;;;;;;;5136360;27;20463;-61
2021/04/11 09:09:57;;;;;;;25.90;23.20;;;;;;;;;;5134588;27;20451;-61
2021/04/11 09:12:40;;;;;;;25.53;22.83;;;;;;;;;;5127056;27;20463;-61
2021/04/11 09:15:21;;;;;;;31.40;23.73;;;;;;;;;;5123854;27;20448;-61
2021/04/11 09:18:10;;;;;;;26.50;23.70;;;;;;;;;;5131649;27;20469;-61
2021/04/11 09:20:49;;;;;;;25.13;22.47;;;;;;;;;;5127795;27;20448;-60
2021/04/11 09:23:40;;;;;;;24.17;21.77;;;;;;;;;;5135284;27;20836;-60
2021/04/11 09:26:19;;;;;;;23.73;21.40;;;;;;;;;;5114615;28;20502;-61
2021/04/11 09:29:21;;;;;;;25.53;22.90;;;;;;;;;;5122942;27;20460;-60
2021/04/11 09:32:15;;;;;;;25.50;23.00;;;;;;;;;;5117794;27;20921;-60
2021/04/11 09:34:47;;;;;;;24.50;21.97;;;;;;;;;;5114306;28;20858;-60
2021/04/11 09:37:51;;;;;;;24.27;21.23;;;;;;;;;;5114242;28;20937;-61
2021/04/11 09:40:36;;;;;;;21.60;19.30;;;;;;;;;;5124046;27;20468;-61
2021/04/11 09:43:19;;;;;;;21.27;19.20;;;;;;;;;;5123088;27;20538;-60
2021/04/11 09:46:18;;;;;;;18.97;17.17;;;;;;;;;;5134620;27;20801;-60
2021/04/11 09:49:14;;;;;;;20.90;18.90;;;;;;;;;;5133960;27;20791;-60
2021/04/11 09:51:50;;;;;;;18.73;16.87;;;;;;;;;;5121289;27;20775;-60
2021/04/11 09:54:27;;;;;;;20.30;18.23;;;;;;;;;;5135603;27;20455;-60
2021/04/11 09:57:20;;;;;;;19.60;17.63;;;;;;;;;;5120893;27;20730;-61
2021/04/11 10:00:07;;;;;;;20.13;17.43;;;;;;;;;;5120586;27;20462;-61
2021/04/11 10:02:56;;;;;;;19.43;17.43;;;;;;;;;;5121712;27;21019;-60
2021/04/11 10:05:40;;;;;;;20.43;17.70;;;;;;;;;;5122311;27;20471;-60
2021/04/11 10:08:37;;;;;;;19.30;17.43;;;;;;;;;;5130396;27;20787;-60
2021/04/11 10:11:27;;;;;;;25.20;20.83;;;;;;;;;;5126920;27;20460;-60
2021/04/11 10:14:10;;;;;;;20.77;18.63;;;;;;;;;;5127245;27;20544;-62
2021/04/11 10:16:59;;;;;;;20.33;18.43;;;;;;;;;;5122108;27;20452;-61
2021/04/11 10:19:47;;;;;;;19.53;17.50;;;;;;;;;;5129460;27;20784;-61
2021/04/11 10:22:42;;;;;;;19.67;17.60;;;;;;;;;;5127997;27;20536;-61
2021/04/11 10:25:27;;;;;;;19.57;17.80;;;;;;;;;;5124539;27;20467;-62
2021/04/11 10:27:55;;;;;;;19.23;17.10;;;;;;;;;;5120619;27;20483;-60
2021/04/11 10:30:21;;;;;;;19.30;17.60;;;;;;;;;;5133816;27;20440;-61
2021/04/11 10:32:58;;;;;;;16.93;15.23;;;;;;;;;;5120786;27;20593;-61
2021/04/11 10:35:36;;;;;;;19.67;17.77;;;;;;;;;;5119189;27;20445;-60
2021/04/11 10:38:12;;;;;;;19.20;17.40;;;;;;;;;;5123200;27;20468;-61
2021/04/11 10:40:55;;;;;;;19.27;17.40;;;;;;;;;;5127923;27;20583;-61
2021/04/11 10:43:49;;;;;;;18.47;16.77;;;;;;;;;;5127648;27;20785;-61
2021/04/11 10:46:42;;;;;;;19.70;17.90;;;;;;;;;;5125682;27;20788;-61
2021/04/11 10:49:27;;;;;;;18.53;16.70;;;;;;;;;;5121490;27;20460;-61
2021/04/11 10:51:59;;;;;;;17.97;15.97;;;;;;;;;;5132449;28;20467;-61
2021/04/11 10:54:44;;;;;;;17.57;15.90;;;;;;;;;;5133299;28;20447;-61
2021/04/11 10:57:31;;;;;;;18.83;16.80;;;;;;;;;;5132878;27;20927;-60
2021/04/11 11:00:18;;;;;;;18.67;16.70;;;;;;;;;;5120685;27;20464;-61
2021/04/11 11:03:16;;;;;;;20.47;18.47;;;;;;;;;;5102021;27;21010;-61
2021/04/11 11:06:18;;;;;;;21.97;19.73;;;;;;;;;;5121503;27;20793;-61
2021/04/11 11:09:21;;;;;;;18.10;16.03;;;;;;;;;;5123570;27;20476;-61
2021/04/11 11:12:01;;;;;;;18.70;16.77;;;;;;;;;;5121953;27;20452;-61
2021/04/11 11:14:45;;;;;;;17.40;15.63;;;;;;;;;;5129333;28;20518;-61
2021/04/11 11:17:25;;;;;;;16.87;15.30;;;;;;;;;;5127054;27;20440;-61
2021/04/11 11:20:08;;;;;;;19.47;17.63;;;;;;;;;;5117570;28;20473;-60
2021/04/11 11:22:55;;;;;;;22.13;18.30;;;;;;;;;;5134175;27;20524;-60
2021/04/11 11:25:46;;;;;;;14.27;12.87;;;;;;;;;;5137810;27;20555;-61
2021/04/11 11:28:33;;;;;;;17.73;15.30;;;;;;;;;;5126275;27;20460;-61
2021/04/11 11:31:10;;;;;;;18.83;15.90;;;;;;;;;;5123201;27;20452;-61
2021/04/11 11:34:12;;;;;;;15.63;14.13;;;;;;;;;;5123899;27;20445;-61
2021/04/11 11:36:53;;;;;;;18.00;15.50;;;;;;;;;;5124046;27;21374;-60
2021/04/11 11:39:41;;;;;;;30.30;19.87;;;;;;;;;;5125433;27;20473;-61
2021/04/11 11:42:23;;;;;;;138.43;101.33;;;;;;;;;;5132175;27;20457;-62
2021/04/11 11:45:10;;;;;;;38.90;31.97;;;;;;;;;;5164303;27;20738;-61
2021/04/11 11:47:50;;;;;;;38.67;30.60;;;;;;;;;;5126242;27;20451;-61
2021/04/11 11:50:29;;;;;;;17.30;15.47;;;;;;;;;;5133154;27;20901;-62
2021/04/11 11:53:09;;;;;;;18.43;16.33;;;;;;;;;;5130082;27;20438;-62
2021/04/11 11:55:41;;;;;;;11.27;10.30;;;;;;;;;;5102523;28;20445;-62
2021/04/11 11:58:13;;;;;;;20.50;16.27;;;;;;;;;;5130731;27;20474;-62
2021/04/11 12:00:41;;;;;;;11.77;10.57;;;;;;;;;;5137947;27;20465;-62
2021/04/11 12:03:24;;;;;;;23.70;17.47;;;;;;;;;;5130250;27;20466;-62
2021/04/11 12:06:16;;;;;;;21.17;18.97;;;;;;;;;;5129408;27;20772;-62
2021/04/11 12:08:59;;;;;;;11.90;10.67;;;;;;;;;;5122447;27;20468;-62
2021/04/11 12:11:37;;;;;;;12.67;11.60;;;;;;;;;;5135591;27;20549;-62
2021/04/11 12:14:15;;;;;;;13.10;12.07;;;;;;;;;;5159145;27;20460;-64
2021/04/11 12:16:44;;;;;;;10.37;9.47;;;;;;;;;;5159279;27;20778;-62
2021/04/11 12:19:30;;;;;;;13.10;11.97;;;;;;;;;;5126124;27;20960;-62
2021/04/11 12:21:59;;;;;;;13.53;12.33;;;;;;;;;;5145550;27;20803;-61
2021/04/11 12:24:29;;;;;;;13.53;12.17;;;;;;;;;;5131502;27;20524;-62
2021/04/11 12:26:57;;;;;;;11.70;10.57;;;;;;;;;;5128111;27;20471;-63
2021/04/11 12:29:28;;;;;;;9.60;8.57;;;;;;;;;;5123950;27;20459;-63
2021/04/11 12:31:59;;;;;;;8.60;7.90;;;;;;;;;;5125402;27;20781;-63
2021/04/11 12:34:49;;;;;;;10.30;9.30;;;;;;;;;;5128410;27;20456;-62
2021/04/11 12:37:28;;;;;;;11.00;9.83;;;;;;;;;;5129510;27;20461;-63
2021/04/11 12:40:03;;;;;;;9.30;8.17;;;;;;;;;;5126961;27;20452;-62
2021/04/11 12:42:39;;;;;;;9.30;8.50;;;;;;;;;;5121579;27;20440;-62
2021/04/11 12:45:20;;;;;;;9.70;8.83;;;;;;;;;;5123396;27;20828;-62
2021/04/11 12:48:20;;;;;;;8.47;7.70;;;;;;;;;;5135882;27;20471;-63
2021/04/11 12:51:05;;;;;;;8.60;7.77;;;;;;;;;;5124288;27;20517;-63
2021/04/11 12:53:49;;;;;;;7.37;6.77;;;;;;;;;;5136071;27;20466;-62
2021/04/11 12:56:16;;;;;;;8.67;7.00;;;;;;;;;;5137246;27;20440;-62
2021/04/11 12:58:56;;;;;;;11.23;10.13;;;;;;;;;;5122795;27;20475;-62
2021/04/11 13:01:35;;;;;;;8.00;7.13;;;;;;;;;;5156017;27;20444;-62
2021/04/11 13:04:05;;;;;;;7.17;6.53;;;;;;;;;;5124691;27;20464;-62
2021/04/11 13:06:48;;;;;;;7.73;6.93;;;;;;;;;;5130587;27;20968;-63
2021/04/11 13:09:32;;;;;;;7.53;6.80;;;;;;;;;;5129633;27;20464;-62
2021/04/11 13:12:23;;;;;;;9.20;8.27;;;;;;;;;;5125340;27;20453;-63
2021/04/11 13:15:10;;;;;;;6.73;6.03;;;;;;;;;;5127887;27;20928;-63
2021/04/11 13:17:40;;;;;;;6.57;5.97;;;;;;;;;;5121328;27;20529;-61
2021/04/11 13:20:28;;;;;;;7.97;6.37;;;;;;;;;;5124713;27;20529;-62
2021/04/11 13:23:01;;;;;;;7.83;7.13;;;;;;;;;;5127914;27;20520;-62
2021/04/11 13:25:41;;;;;;;6.00;5.40;;;;;;;;;;5129261;27;20456;-62
2021/04/11 13:28:19;;;;;;;8.93;6.00;;;;;;;;;;5102821;27;20570;-62
2021/04/11 13:31:09;;;;;;;8.73;7.60;;;;;;;;;;5113911;28;20464;-62
2021/04/11 13:33:40;;;;;;;5.57;5.00;;;;;;;;;;5115285;28;20457;-62
2021/04/11 13:36:07;;;;;;;5.67;5.20;;;;;;;;;;5114713;28;20457;-61
2021/04/11 13:38:41;;;;;;;7.13;5.20;;;;;;;;;;5096936;28;21002;-62
2021/04/11 13:41:25;;;;;;;5.60;5.10;;;;;;;;;;5114792;28;20514;-62
2021/04/11 13:44:01;;;;;;;7.53;6.00;;;;;;;;;;5113362;28;20453;-62
2021/04/11 13:46:34;;;;;;;6.30;5.40;;;;;;;;;;5114164;27;20482;-62
2021/04/11 13:49:04;;;;;;;5.50;4.93;;;;;;;;;;5100730;28;20473;-61
2021/04/11 13:51:40;;;;;;;5.63;5.17;;;;;;;;;;5113929;28;20461;-61
2021/04/11 13:54:20;;;;;;;6.87;4.87;;;;;;;;;;5113597;28;20471;-62
2021/04/11 13:57:00;;;;;;;5.63;5.13;;;;;;;;;;5113158;28;20461;-62
2021/04/11 13:59:52;;;;;;;8.33;5.67;;;;;;;;;;5113847;28;20528;-60
2021/04/11 14:02:25;;;;;;;6.13;4.50;;;;;;;;;;5113250;28;20468;-60
2021/04/11 14:05:17;;;;;;;5.10;4.63;;;;;;;;;;5113922;28;20461;-60
2021/04/11 14:07:45;;;;;;;5.93;5.20;;;;;;;;;;5122413;27;20483;-61
2021/04/11 14:10:13;;;;;;;6.83;5.57;;;;;;;;;;5114450;27;20583;-60
2021/04/11 14:12:57;;;;;;;6.90;4.53;;;;;;;;;;5099543;28;20485;-61
2021/04/11 14:15:26;;;;;;;7.60;6.90;;;;;;;;;;5101967;28;20465;-61
2021/04/11 14:17:58;;;;;;;7.57;4.50;;;;;;;;;;5106050;28;20630;-61
2021/04/11 14:20:30;;;;;;;5.27;4.63;;;;;;;;;;5106247;28;20550;-61
2021/04/11 14:23:06;;;;;;;5.30;4.80;;;;;;;;;;5120701;27;20456;-60
2021/04/11 14:25:37;;;;;;;6.23;5.63;;;;;;;;;;5120250;27;20463;-61
2021/04/11 14:28:14;;;;;;;7.10;5.50;;;;;;;;;;5112977;28;20472;-60
2021/04/11 14:30:45;;;;;;;5.40;4.90;;;;;;;;;;5116968;27;20465;-60
2021/04/11 14:33:25;;;;;;;6.43;5.73;;;;;;;;;;5104900;28;20461;-60
2021/04/11 14:36:04;;;;;;;6.27;5.67;;;;;;;;;;5092518;28;20844;-59
2021/04/11 14:38:34;;;;;;;9.10;8.20;;;;;;;;;;5113079;28;20456;-64
2021/04/11 14:41:08;;;;;;;5.90;5.33;;;;;;;;;;5103659;28;20555;-61
2021/04/11 14:43:41;;;;;;;6.17;5.57;;;;;;;;;;5110493;27;20514;-60
2021/04/11 14:46:12;;;;;;;5.77;4.60;;;;;;;;;;5111619;28;20905;-60
2021/04/11 14:48:39;;;;;;;6.17;5.57;;;;;;;;;;5113816;28;20801;-59
2021/04/11 14:51:45;;;;;;;6.17;5.40;;;;;;;;;;5112771;28;20456;-59
2021/04/11 14:54:21;;;;;;;5.40;4.90;;;;;;;;;;5112762;28;20436;-59
2021/04/11 14:57:01;;;;;;;5.70;5.10;;;;;;;;;;5114928;28;20527;-59
2021/04/11 14:59:55;;;;;;;5.37;4.63;;;;;;;;;;5118198;27;20448;-60
2021/04/11 15:02:51;;;;;;;6.13;4.67;;;;;;;;;;5070031;28;20505;-60
2021/04/11 15:05:45;;;;;;;4.70;4.30;;;;;;;;;;5117419;28;20487;-60
2021/04/11 15:08:33;;;;;;;6.77;4.70;;;;;;;;;;5099879;28;20481;-61
2021/04/11 15:11:09;;;;;;;7.23;4.87;;;;;;;;;;5117854;28;20681;-60
2021/04/11 15:13:47;;;;;;;5.53;4.67;;;;;;;;;;5100830;28;20452;-58
2021/04/11 15:16:44;;;;;;;5.93;5.27;;;;;;;;;;5116934;28;20453;-60
2021/04/11 15:19:21;;;;;;;5.17;4.67;;;;;;;;;;5116870;28;20452;-59
2021/04/11 15:22:04;;;;;;;4.73;4.30;;;;;;;;;;5117125;28;20828;-59
2021/04/11 15:24:39;;;;;;;5.73;5.07;;;;;;;;;;5117014;28;20548;-59